createdAt,value
2018-11-23T00:01:26.183Z,74.00
2018-11-23T00:03:31.354Z,74.00
2018-11-23T00:05:35.765Z,74.10
2018-11-23T00:07:40.591Z,74.50
2018-11-23T00:09:46.337Z,74.80
2018-11-23T00:11:50.833Z,74.90
2018-11-23T00:13:55.232Z,74.80
2018-11-23T00:15:59.719Z,74.80
2018-11-23T00:18:04.181Z,75.00
2018-11-23T00:20:10.676Z,75.50
2018-11-23T00:22:15.806Z,75.60
2018-11-23T00:24:20.202Z,75.60
2018-11-23T00:26:24.628Z,75.60
2018-11-23T00:28:29.037Z,75.40
2018-11-23T00:30:33.422Z,75.00
2018-11-23T00:32:38.038Z,75.00
2018-11-23T00:34:42.430Z,74.90
2018-11-23T00:36:46.838Z,74.60
2018-11-23T00:38:51.689Z,74.50
2018-11-23T00:40:56.086Z,74.40
2018-11-23T00:43:00.927Z,74.30
2018-11-23T00:45:06.882Z,74.30
2018-11-23T00:47:11.312Z,74.30
2018-11-23T00:49:15.755Z,74.20
2018-11-23T00:51:20.210Z,74.00
2018-11-23T00:53:24.600Z,74.00
2018-11-23T00:55:29.719Z,73.80
2018-11-23T00:57:35.010Z,73.80
2018-11-23T00:59:39.438Z,73.60
2018-11-23T01:01:49.551Z,73.50
2018-11-23T01:03:54.000Z,73.50
2018-11-23T01:05:58.389Z,73.60
2018-11-23T01:08:02.979Z,73.60
2018-11-23T01:10:09.219Z,73.80
2018-11-23T01:12:13.677Z,73.90
2018-11-23T01:14:18.150Z,73.80
2018-11-23T01:16:22.569Z,73.80
2018-11-23T01:18:27.003Z,73.90
2018-11-23T01:20:31.524Z,73.70
2018-11-23T01:22:35.954Z,73.80
2018-11-23T01:24:40.386Z,74.00
2018-11-23T01:26:44.847Z,73.90
2018-11-23T01:28:49.261Z,74.00
2018-11-23T01:30:54.550Z,73.90
2018-11-23T01:32:59.003Z,73.90
2018-11-23T01:35:03.975Z,74.00
2018-11-23T01:37:08.377Z,73.90
2018-11-23T01:39:12.784Z,73.90
2018-11-23T01:41:17.290Z,74.00
2018-11-23T01:43:21.731Z,74.00
2018-11-23T01:45:26.209Z,73.90
2018-11-23T01:47:30.625Z,73.80
2018-11-23T01:49:35.850Z,74.00
2018-11-23T01:51:40.290Z,73.90
2018-11-23T01:53:44.745Z,73.70
2018-11-23T01:55:49.301Z,73.70
2018-11-23T01:57:53.729Z,73.60
2018-11-23T01:59:58.936Z,73.70
2018-11-23T02:02:03.506Z,73.80
2018-11-23T02:04:07.978Z,73.70
2018-11-23T02:06:12.357Z,73.80
2018-11-23T02:08:16.801Z,74.10
2018-11-23T02:10:21.800Z,74.00
2018-11-23T02:12:26.219Z,74.00
2018-11-23T02:14:30.656Z,74.10
2018-11-23T02:16:35.166Z,74.00
2018-11-23T02:18:39.562Z,74.00
2018-11-23T02:20:43.973Z,74.00
2018-11-23T02:22:48.408Z,74.00
2018-11-23T02:24:53.131Z,74.00
2018-11-23T02:26:57.657Z,74.00
2018-11-23T02:29:02.062Z,74.00
2018-11-23T02:31:07.783Z,74.00
2018-11-23T02:33:12.213Z,74.10
2018-11-23T02:35:17.071Z,74.00
2018-11-23T02:37:21.573Z,74.00
2018-11-23T02:39:26.018Z,74.00
2018-11-23T02:41:33.334Z,74.00
2018-11-23T02:43:37.744Z,74.00
2018-11-23T02:45:42.127Z,74.00
2018-11-23T02:47:47.165Z,74.00
2018-11-23T02:49:52.333Z,74.20
2018-11-23T02:51:56.763Z,74.40
2018-11-23T02:54:01.198Z,74.40
2018-11-23T02:56:05.931Z,74.60
2018-11-23T02:58:10.375Z,74.80
2018-11-23T03:00:16.925Z,74.80
2018-11-23T03:02:21.501Z,74.70
2018-11-23T03:04:25.925Z,74.80
2018-11-23T03:06:30.289Z,74.90
2018-11-23T03:08:34.796Z,75.00
2018-11-23T03:10:39.238Z,74.90
2018-11-23T03:12:44.365Z,75.10
2018-11-23T03:14:48.798Z,75.10
2018-11-23T03:16:53.294Z,75.10
2018-11-23T03:18:57.710Z,75.10
2018-11-23T03:21:02.152Z,75.10
2018-11-23T03:23:06.667Z,75.20
2018-11-23T03:25:11.585Z,75.00
2018-11-23T03:27:15.985Z,74.80
2018-11-23T03:29:20.350Z,75.00
2018-11-23T03:31:25.787Z,75.00
2018-11-23T03:33:31.032Z,74.80
2018-11-23T03:35:35.442Z,74.80
2018-11-23T03:37:39.849Z,74.40
2018-11-23T03:39:44.370Z,74.40
2018-11-23T03:41:48.750Z,74.30
2018-11-23T03:43:53.910Z,74.10
2018-11-23T03:45:58.376Z,73.80
2018-11-23T03:48:02.813Z,73.70
2018-11-23T03:50:08.337Z,73.50
2018-11-23T03:52:12.731Z,73.70
2018-11-23T03:54:17.126Z,73.70
2018-11-23T03:56:21.533Z,73.70
2018-11-23T03:58:25.950Z,73.70
2018-11-23T04:00:30.352Z,73.70
2018-11-23T04:02:34.722Z,74.20
2018-11-23T04:04:39.128Z,74.30
2018-11-23T04:06:43.559Z,74.30
2018-11-23T04:08:47.908Z,74.30
2018-11-23T04:10:52.314Z,73.90
2018-11-23T04:12:56.748Z,73.60
2018-11-23T04:15:01.122Z,73.60
2018-11-23T04:17:05.662Z,73.90
2018-11-23T04:19:10.158Z,74.30
2018-11-23T04:21:14.569Z,74.50
2018-11-23T04:23:18.965Z,74.30
2018-11-23T04:25:24.161Z,74.30
2018-11-23T04:27:28.642Z,74.00
2018-11-23T04:29:33.625Z,73.80
2018-11-23T04:31:37.977Z,73.70
2018-11-23T04:33:42.404Z,73.70
2018-11-23T04:35:46.764Z,73.60
2018-11-23T04:37:51.228Z,73.70
2018-11-23T04:39:55.641Z,73.50
2018-11-23T04:42:00.105Z,73.50
2018-11-23T04:44:04.579Z,73.50
2018-11-23T04:46:08.994Z,73.50
2018-11-23T04:48:13.449Z,73.40
2018-11-23T04:50:17.877Z,73.50
2018-11-23T04:52:22.316Z,73.40
2018-11-23T04:54:26.796Z,73.70
2018-11-23T04:56:31.227Z,73.90
2018-11-23T04:58:35.649Z,74.10
2018-11-23T05:00:40.096Z,74.30
2018-11-23T05:02:45.285Z,74.10
2018-11-23T05:04:49.706Z,74.30
2018-11-23T05:06:54.167Z,74.40
2018-11-23T05:08:58.605Z,74.50
2018-11-23T05:11:03.011Z,74.50
2018-11-23T05:13:07.493Z,74.60
2018-11-23T05:15:13.252Z,74.60
2018-11-23T05:17:17.640Z,74.50
2018-11-23T05:19:22.510Z,74.70
2018-11-23T05:21:26.874Z,74.70
2018-11-23T05:23:31.217Z,74.60
2018-11-23T05:25:35.665Z,74.70
2018-11-23T05:27:40.061Z,74.70
2018-11-23T05:29:44.512Z,74.40
2018-11-23T05:31:48.917Z,74.40
2018-11-23T05:33:53.505Z,74.40
2018-11-23T05:35:58.007Z,74.40
2018-11-23T05:38:02.385Z,74.10
2018-11-23T05:40:09.207Z,74.10
2018-11-23T05:42:14.942Z,74.00
2018-11-23T05:44:19.459Z,74.10
2018-11-23T05:46:23.823Z,73.80
2018-11-23T05:48:28.255Z,73.80
2018-11-23T05:50:32.698Z,74.10
2018-11-23T05:52:37.069Z,74.30
2018-11-23T05:54:41.468Z,74.30
2018-11-23T05:56:46.070Z,74.20
2018-11-23T05:58:50.515Z,74.30
2018-11-23T06:00:54.930Z,74.30
2018-11-23T06:02:59.419Z,74.20
2018-11-23T06:05:03.886Z,74.10
2018-11-23T06:07:08.302Z,74.00
2018-11-23T06:09:12.810Z,74.10
2018-11-23T06:11:19.285Z,74.30
2018-11-23T06:13:23.713Z,74.30
2018-11-23T06:15:28.208Z,74.40
2018-11-23T06:17:39.010Z,74.50
2018-11-23T06:19:44.030Z,74.50
2018-11-23T06:21:48.451Z,74.30
2018-11-23T06:23:53.029Z,74.40
2018-11-23T06:26:05.145Z,74.30
2018-11-23T06:28:10.879Z,74.30
2018-11-23T06:30:15.814Z,74.40
2018-11-23T06:32:32.019Z,74.50
2018-11-23T06:34:36.429Z,74.70
2018-11-23T06:36:40.797Z,75.30
2018-11-23T06:38:45.282Z,74.60
2018-11-23T06:40:49.713Z,74.70
2018-11-23T06:42:54.102Z,74.60
2018-11-23T06:44:58.541Z,74.60
2018-11-23T06:47:02.968Z,74.40
2018-11-23T06:49:07.446Z,74.30
2018-11-23T06:51:11.878Z,74.20
2018-11-23T06:53:16.426Z,73.90
2018-11-23T06:55:21.512Z,73.90
2018-11-23T06:57:25.934Z,73.80
2018-11-23T06:59:30.542Z,73.60
2018-11-23T07:01:35.000Z,73.40
2018-11-23T07:03:39.409Z,73.30
2018-11-23T07:05:44.742Z,73.20
2018-11-23T07:07:49.329Z,73.20
2018-11-23T07:09:53.804Z,73.20
2018-11-23T07:11:58.245Z,73.10
2018-11-23T07:14:03.976Z,73.30
2018-11-23T07:16:07.297Z,73.20
2018-11-23T07:18:11.695Z,73.20
2018-11-23T07:20:16.107Z,73.40
2018-11-23T07:22:20.617Z,73.60
2018-11-23T07:24:25.465Z,73.80
2018-11-23T07:26:29.878Z,73.90
2018-11-23T07:28:34.344Z,73.90
2018-11-23T07:30:38.744Z,73.90
2018-11-23T07:32:43.392Z,73.80
2018-11-23T07:34:47.978Z,73.90
2018-11-23T07:36:52.368Z,73.90
2018-11-23T07:38:56.779Z,74.10
2018-11-23T07:41:12.198Z,74.60
2018-11-23T07:43:16.621Z,74.60
2018-11-23T07:45:21.050Z,74.90
2018-11-23T07:47:26.384Z,74.90
2018-11-23T07:49:30.833Z,74.90
2018-11-23T07:51:39.253Z,75.10
2018-11-23T07:53:42.399Z,75.20
2018-11-23T07:55:46.837Z,75.30
2018-11-23T07:57:51.746Z,75.30
2018-11-23T07:59:56.302Z,75.70
2018-11-23T08:02:00.712Z,75.80
2018-11-23T08:04:05.326Z,75.80
2018-11-23T08:06:09.750Z,75.80
2018-11-23T08:08:14.138Z,75.90
2018-11-23T08:10:17.685Z,75.80
2018-11-23T08:12:22.094Z,76.20
2018-11-23T08:14:26.572Z,76.20
2018-11-23T08:16:31.061Z,76.20
2018-11-23T08:18:36.406Z,76.40
2018-11-23T08:20:40.956Z,76.50
2018-11-23T08:22:45.406Z,76.60
2018-11-23T08:24:54.366Z,76.80
2018-11-23T08:27:15.162Z,76.50
2018-11-23T08:29:19.640Z,76.80
2018-11-23T08:31:24.050Z,77.10
2018-11-23T08:33:28.463Z,77.20
2018-11-23T08:35:32.920Z,77.00
2018-11-23T08:37:53.154Z,77.20
2018-11-23T08:39:57.620Z,77.10
2018-11-23T08:42:02.057Z,77.30
2018-11-23T08:44:06.685Z,77.30
2018-11-23T08:46:11.122Z,77.50
2018-11-23T08:48:15.567Z,77.50
2018-11-23T08:50:23.201Z,77.40
2018-11-23T08:52:27.701Z,77.30
2018-11-23T08:54:32.293Z,77.50
2018-11-23T08:56:36.721Z,77.50
2018-11-23T08:58:41.230Z,77.60
2018-11-23T09:00:45.640Z,77.70
2018-11-23T09:02:51.345Z,77.50
2018-11-23T09:04:55.802Z,77.40
2018-11-23T09:07:00.230Z,77.00
2018-11-23T09:09:06.798Z,76.80
2018-11-23T09:11:11.246Z,76.50
2018-11-23T09:13:15.678Z,76.50
2018-11-23T09:15:20.138Z,76.80
2018-11-23T09:17:24.676Z,77.20
2018-11-23T09:19:29.084Z,77.70
2018-11-23T09:21:34.634Z,77.80
2018-11-23T09:23:39.693Z,78.40
2018-11-23T09:25:44.131Z,78.80
2018-11-23T09:27:48.563Z,79.20
2018-11-23T09:29:53.077Z,79.40
2018-11-23T09:31:57.691Z,80.00
2018-11-23T09:34:02.113Z,80.00
2018-11-23T09:36:06.556Z,80.70
2018-11-23T09:38:11.006Z,81.00
2018-11-23T09:40:19.745Z,80.90
2018-11-23T09:42:24.248Z,81.20
2018-11-23T09:44:28.673Z,81.50
2018-11-23T09:46:33.093Z,81.70
2018-11-23T09:48:37.706Z,81.90
2018-11-23T09:50:42.083Z,82.10
2018-11-23T09:52:47.458Z,82.10
2018-11-23T09:54:52.106Z,82.70
2018-11-23T09:56:56.579Z,83.00
2018-11-23T09:59:01.044Z,83.00
2018-11-23T10:03:10.412Z,83.10
2018-11-23T10:05:15.455Z,82.90
2018-11-23T10:07:19.855Z,83.20
2018-11-23T10:09:24.281Z,82.70
2018-11-23T10:11:28.741Z,82.70
2018-11-23T10:13:33.136Z,83.00
2018-11-23T10:15:38.305Z,83.40
2018-11-23T10:17:42.944Z,83.50
2018-11-23T10:19:47.682Z,83.50
2018-11-23T10:21:52.168Z,83.80
2018-11-23T10:23:57.251Z,83.50
2018-11-23T10:26:01.766Z,83.80
2018-11-23T10:28:06.323Z,84.40
2018-11-23T10:30:12.921Z,84.10
2018-11-23T10:32:17.644Z,84.00
2018-11-23T10:34:22.090Z,83.70
2018-11-23T10:36:26.686Z,83.80
2018-11-23T10:38:31.054Z,83.90
2018-11-23T10:40:37.021Z,84.20
2018-11-23T10:42:42.472Z,83.80
2018-11-23T10:44:46.909Z,83.80
2018-11-23T10:46:51.774Z,83.50
2018-11-23T10:48:56.224Z,83.80
2018-11-23T10:51:00.776Z,83.80
2018-11-23T10:53:05.480Z,83.50
2018-11-23T10:55:12.473Z,83.50
2018-11-23T10:57:16.922Z,83.60
2018-11-23T10:59:21.382Z,83.70
2018-11-23T11:01:30.987Z,83.60
2018-11-23T11:03:35.783Z,83.80
2018-11-23T11:05:45.436Z,84.10
2018-11-23T11:07:49.836Z,83.80
2018-11-23T11:09:54.325Z,83.50
2018-11-23T11:11:59.171Z,83.50
2018-11-23T11:14:03.920Z,83.40
2018-11-23T11:16:08.683Z,83.30
2018-11-23T11:18:13.179Z,82.70
2018-11-23T11:20:18.029Z,82.70
2018-11-23T11:22:22.749Z,82.90
2018-11-23T11:24:27.227Z,82.20
2018-11-23T11:26:31.690Z,82.80
2018-11-23T11:28:36.128Z,82.50
2018-11-23T11:30:40.594Z,82.50
2018-11-23T11:32:46.120Z,82.30
2018-11-23T11:34:50.703Z,81.90
2018-11-23T11:36:55.202Z,81.90
2018-11-23T11:38:59.732Z,81.70
2018-11-23T11:41:04.179Z,82.00
2018-11-23T11:43:08.581Z,81.90
2018-11-23T11:45:14.298Z,81.60
2018-11-23T11:47:18.818Z,81.10
2018-11-23T11:49:23.301Z,80.70
2018-11-23T11:51:27.873Z,80.50
2018-11-23T11:53:32.332Z,81.00
2018-11-23T11:55:36.790Z,80.30
2018-11-23T11:57:42.605Z,79.90
2018-11-23T11:59:47.867Z,79.90
2018-11-23T12:01:52.501Z,79.70
2018-11-23T12:03:57.658Z,79.60
2018-11-23T12:06:02.170Z,79.50
2018-11-23T12:08:06.916Z,79.80
2018-11-23T12:10:17.297Z,79.80
2018-11-23T12:12:21.703Z,79.20
2018-11-23T12:14:26.177Z,79.20
2018-11-23T12:16:30.608Z,79.30
2018-11-23T12:18:35.049Z,79.10
2018-11-23T12:20:39.510Z,78.70
2018-11-23T12:22:44.174Z,78.50
2018-11-23T12:24:48.721Z,78.30
2018-11-23T12:26:53.150Z,78.10
2018-11-23T12:28:57.597Z,78.10
2018-11-23T12:31:02.045Z,78.10
2018-11-23T12:33:06.540Z,78.10
2018-11-23T12:35:12.067Z,78.00
2018-11-23T12:37:17.113Z,78.20
2018-11-23T12:39:21.657Z,77.80
2018-11-23T12:41:26.058Z,77.80
2018-11-23T12:43:30.495Z,77.70
2018-11-23T12:45:34.958Z,77.50
2018-11-23T12:47:39.466Z,77.30
2018-11-23T12:49:43.892Z,77.10
2018-11-23T12:51:48.374Z,77.10
2018-11-23T12:53:53.630Z,76.90
2018-11-23T12:55:58.193Z,76.70
2018-11-23T12:58:02.621Z,76.40
2018-11-23T13:00:27.506Z,76.40
2018-11-23T13:02:31.993Z,76.30
2018-11-23T13:04:36.428Z,76.20
2018-11-23T13:06:40.823Z,76.00
2018-11-23T13:08:45.263Z,75.60
2018-11-23T13:10:49.680Z,75.60
2018-11-23T13:12:54.848Z,75.30
2018-11-23T13:14:59.221Z,75.30
2018-11-23T13:17:03.711Z,75.30
2018-11-23T13:19:08.183Z,75.30
2018-11-23T13:21:12.633Z,75.40
2018-11-23T13:23:17.125Z,75.40
2018-11-23T13:25:23.157Z,74.90
2018-11-23T13:27:27.630Z,74.90
2018-11-23T13:29:33.326Z,74.60
2018-11-23T13:31:38.143Z,74.40
2018-11-23T13:33:42.629Z,74.40
2018-11-23T13:35:47.084Z,74.50
2018-11-23T13:37:51.548Z,74.40
2018-11-23T13:39:55.920Z,74.60
2018-11-23T13:42:00.368Z,74.40
2018-11-23T13:44:04.937Z,74.30
2018-11-23T13:46:09.334Z,74.10
2018-11-23T13:48:19.820Z,74.20
2018-11-23T13:50:20.265Z,74.40
2018-11-23T13:52:24.658Z,74.50
2018-11-23T13:54:29.089Z,74.30
2018-11-23T13:56:33.508Z,73.90
2018-11-23T13:58:37.936Z,74.00
2018-11-23T14:00:43.168Z,74.10
2018-11-23T14:02:47.771Z,74.20
2018-11-23T14:04:52.256Z,74.00
2018-11-23T14:06:57.523Z,74.00
2018-11-23T14:09:02.003Z,74.90
2018-11-23T14:11:06.536Z,74.00
2018-11-23T14:13:11.596Z,74.00
2018-11-23T14:15:16.925Z,74.00
2018-11-23T14:17:21.418Z,73.90
2018-11-23T14:19:26.947Z,73.70
2018-11-23T14:21:31.437Z,73.90
2018-11-23T14:23:35.954Z,73.90
2018-11-23T14:25:40.346Z,73.70
2018-11-23T14:27:45.242Z,73.60
2018-11-23T14:29:49.770Z,73.90
2018-11-23T14:31:54.265Z,73.70
2018-11-23T14:33:58.664Z,73.60
2018-11-23T14:36:03.158Z,73.60
2018-11-23T14:38:07.698Z,73.70
2018-11-23T14:40:12.672Z,73.50
2018-11-23T14:42:17.195Z,73.70
2018-11-23T14:44:21.783Z,73.70
2018-11-23T14:46:26.217Z,73.70
2018-11-23T14:48:30.609Z,73.80
2018-11-23T14:50:36.540Z,73.80
2018-11-23T14:52:40.958Z,73.60
2018-11-23T14:54:45.337Z,73.40
2018-11-23T14:56:49.828Z,73.30
2018-11-23T14:58:54.262Z,73.20
2018-11-23T15:00:58.764Z,73.40
2018-11-23T15:03:04.062Z,73.40
2018-11-23T15:05:08.706Z,73.40
2018-11-23T15:07:13.127Z,73.20
2018-11-23T15:09:17.589Z,73.20
2018-11-23T15:11:22.028Z,73.30
2018-11-23T15:13:26.388Z,73.10
2018-11-23T15:15:33.132Z,73.40
2018-11-23T15:17:37.549Z,73.30
2018-11-23T15:19:42.025Z,73.30
2018-11-23T15:21:46.499Z,73.40
2018-11-23T15:23:51.022Z,73.50
2018-11-23T15:25:55.475Z,73.60
2018-11-23T15:27:59.883Z,73.50
2018-11-23T15:30:04.677Z,73.40
2018-11-23T15:32:09.228Z,73.40
2018-11-23T15:34:13.615Z,73.60
2018-11-23T15:36:18.010Z,73.50
2018-11-23T15:38:24.241Z,73.50
2018-11-23T15:40:29.544Z,73.50
2018-11-23T15:42:33.944Z,73.50
2018-11-23T15:44:38.377Z,73.60
2018-11-23T15:46:42.785Z,73.60
2018-11-23T15:48:47.251Z,73.80
2018-11-23T15:50:51.652Z,73.80
2018-11-23T15:52:56.190Z,73.70
2018-11-23T15:55:00.641Z,73.90
2018-11-23T15:57:05.407Z,74.00
2018-11-23T15:59:09.915Z,74.10
2018-11-23T16:01:14.435Z,74.20
2018-11-23T16:03:18.855Z,74.40
2018-11-23T16:05:23.546Z,74.40
2018-11-23T16:07:29.012Z,74.50
2018-11-23T16:09:33.429Z,74.30
2018-11-23T16:11:37.842Z,74.30
2018-11-23T16:13:42.357Z,74.30
2018-11-23T16:15:46.750Z,74.30
2018-11-23T16:17:51.679Z,74.30
2018-11-23T16:19:56.223Z,74.30
2018-11-23T16:22:00.637Z,74.30
2018-11-23T16:24:05.568Z,74.20
2018-11-23T16:26:10.042Z,74.10
2018-11-23T16:28:14.580Z,74.10
2018-11-23T16:30:22.925Z,74.10
2018-11-23T16:32:27.427Z,74.10
2018-11-23T16:34:31.820Z,74.00
2018-11-23T16:36:36.284Z,74.00
2018-11-23T16:38:40.739Z,74.10
2018-11-23T16:40:52.598Z,74.00
2018-11-23T16:42:57.602Z,74.50
2018-11-23T16:45:02.037Z,74.70
2018-11-23T16:47:06.447Z,74.80
2018-11-23T16:49:10.879Z,74.90
2018-11-23T16:51:15.359Z,74.90
2018-11-23T16:53:20.185Z,75.00
2018-11-23T16:55:24.769Z,75.00
2018-11-23T16:57:29.282Z,75.00
2018-11-23T16:59:33.666Z,75.00
2018-11-23T17:01:38.141Z,75.00
2018-11-23T17:03:42.569Z,74.90
2018-11-23T17:05:48.497Z,74.90
2018-11-23T17:07:53.015Z,74.90
2018-11-23T17:09:57.868Z,74.90
2018-11-23T17:12:02.302Z,74.90
2018-11-23T17:14:06.768Z,74.80
2018-11-23T17:16:11.185Z,74.90
2018-11-23T17:18:15.574Z,74.80
2018-11-23T17:20:21.211Z,74.90
2018-11-23T17:22:25.661Z,74.90
2018-11-23T17:24:30.015Z,75.00
2018-11-23T17:26:34.435Z,75.00
2018-11-23T17:28:38.846Z,75.10
2018-11-23T17:30:43.278Z,75.20
2018-11-23T17:32:47.702Z,75.20
2018-11-23T17:34:52.220Z,75.30
2018-11-23T17:36:56.598Z,75.30
2018-11-23T17:39:01.077Z,75.30
2018-11-23T17:41:05.963Z,75.30
2018-11-23T17:43:10.866Z,75.20
2018-11-23T17:45:18.054Z,75.30
2018-11-23T17:47:22.424Z,75.30
2018-11-23T17:49:26.850Z,75.40
2018-11-23T17:51:31.256Z,75.10
2018-11-23T17:53:35.661Z,75.10
2018-11-23T17:55:40.072Z,75.00
2018-11-23T17:57:45.137Z,74.90
2018-11-23T17:59:50.434Z,75.00
2018-11-23T18:01:55.624Z,74.90
2018-11-23T18:04:00.133Z,74.90
2018-11-23T18:06:04.555Z,74.80
2018-11-23T18:08:08.938Z,74.80
2018-11-23T18:10:16.589Z,74.80
2018-11-23T18:12:20.987Z,74.80
2018-11-23T18:14:25.388Z,74.80
2018-11-23T18:16:29.833Z,74.90
2018-11-23T18:18:34.275Z,75.00
2018-11-23T18:20:38.651Z,75.30
2018-11-23T18:22:43.421Z,75.50
2018-11-23T18:24:48.042Z,75.50
2018-11-23T18:26:53.122Z,75.50
2018-11-23T18:28:57.536Z,75.50
2018-11-23T18:31:02.737Z,75.40
2018-11-23T18:33:08.090Z,75.50
2018-11-23T18:35:13.667Z,75.50
2018-11-23T18:37:19.285Z,75.50
2018-11-23T18:39:24.013Z,75.10
2018-11-23T18:41:28.430Z,75.30
2018-11-23T18:43:32.936Z,75.30
2018-11-23T18:45:37.376Z,75.20
2018-11-23T18:47:42.702Z,75.30
2018-11-23T18:49:47.102Z,75.10
2018-11-23T18:51:51.549Z,74.80
2018-11-23T18:53:56.040Z,74.70
2018-11-23T18:56:00.456Z,74.50
2018-11-23T18:58:05.015Z,74.50
2018-11-23T19:00:10.957Z,74.00
2018-11-23T19:02:15.469Z,73.80
2018-11-23T19:04:20.669Z,73.80
2018-11-23T19:06:25.654Z,74.00
2018-11-23T19:08:30.030Z,74.30
2018-11-23T19:10:34.517Z,74.20
2018-11-23T19:12:38.904Z,74.40
2018-11-23T19:14:43.382Z,74.40
2018-11-23T19:16:47.772Z,74.40
2018-11-23T19:18:52.229Z,74.30
2018-11-23T19:20:56.759Z,74.10
2018-11-23T19:23:01.181Z,74.40
2018-11-23T19:25:06.330Z,74.40
2018-11-23T19:27:11.293Z,74.30
2018-11-23T19:29:15.229Z,74.30
2018-11-23T19:31:20.537Z,74.50
2018-11-23T19:33:25.669Z,74.80
2018-11-23T19:35:30.192Z,74.60
2018-11-23T19:37:35.360Z,74.70
2018-11-23T19:39:39.766Z,74.80
2018-11-23T19:41:44.204Z,75.10
2018-11-23T19:43:48.669Z,75.40
2018-11-23T19:45:53.133Z,75.50
2018-11-23T19:47:57.532Z,75.40
2018-11-23T19:50:02.030Z,75.30
2018-11-23T19:52:06.474Z,75.40
2018-11-23T19:54:10.900Z,75.50
2018-11-23T19:56:15.273Z,75.50
2018-11-23T19:58:19.818Z,75.50
2018-11-23T20:00:26.981Z,75.50
2018-11-23T20:02:31.354Z,75.60
2018-11-23T20:04:35.830Z,75.60
2018-11-23T20:06:42.849Z,75.50
2018-11-23T20:08:44.712Z,75.60
2018-11-23T20:10:49.661Z,75.60
2018-11-23T20:12:56.615Z,75.60
2018-11-23T20:15:01.377Z,75.60
2018-11-23T20:17:06.992Z,75.70
2018-11-23T20:19:11.705Z,75.60
2018-11-23T20:21:16.482Z,75.40
2018-11-23T20:23:21.259Z,75.50
2018-11-23T20:25:26.207Z,75.50
2018-11-23T20:27:31.199Z,75.50
2018-11-23T20:29:36.049Z,75.40
2018-11-23T20:31:40.763Z,75.30
2018-11-23T20:33:45.381Z,75.40
2018-11-23T20:35:50.945Z,75.30
2018-11-23T20:37:54.649Z,75.30
2018-11-23T20:39:59.434Z,75.40
2018-11-23T20:42:03.898Z,75.30
2018-11-23T20:44:08.404Z,75.40
2018-11-23T20:46:12.818Z,75.40
2018-11-23T20:48:17.195Z,75.40
2018-11-23T20:50:21.739Z,75.40
2018-11-23T20:52:26.182Z,75.50
2018-11-23T20:54:31.522Z,75.60
2018-11-23T20:56:36.654Z,75.50
2018-11-23T20:58:41.148Z,75.60
2018-11-23T21:00:45.582Z,75.90
2018-11-23T21:02:50.967Z,75.90
2018-11-23T21:04:55.398Z,75.90
2018-11-23T21:06:59.971Z,75.80
2018-11-23T21:09:06.850Z,75.70
2018-11-23T21:11:15.671Z,75.60
2018-11-23T21:13:25.734Z,75.30
2018-11-23T21:15:35.807Z,75.10
2018-11-23T21:17:40.222Z,74.90
2018-11-23T21:19:44.599Z,74.70
2018-11-23T21:21:49.014Z,74.60
2018-11-23T21:23:53.526Z,74.60
2018-11-23T21:25:57.970Z,74.40
2018-11-23T21:28:02.467Z,74.20
2018-11-23T21:30:10.828Z,74.20
2018-11-23T21:32:15.253Z,74.40
2018-11-23T21:34:19.741Z,74.40
2018-11-23T21:36:24.298Z,74.30
2018-11-23T21:38:28.698Z,74.40
2018-11-23T21:40:33.889Z,74.60
2018-11-23T21:42:38.351Z,74.80
2018-11-23T21:44:42.766Z,74.80
2018-11-23T21:46:47.172Z,74.80
2018-11-23T21:48:51.592Z,75.20
2018-11-23T21:50:56.365Z,75.20
2018-11-23T21:53:00.800Z,75.20
2018-11-23T21:55:06.348Z,75.30
2018-11-23T21:57:10.802Z,75.40
2018-11-23T21:59:15.932Z,75.60
2018-11-23T22:01:20.343Z,75.50
2018-11-23T22:03:24.961Z,75.30
2018-11-23T22:05:29.360Z,75.40
2018-11-23T22:07:40.312Z,75.40
2018-11-23T22:09:49.908Z,75.30
2018-11-23T22:11:54.418Z,75.00
2018-11-23T22:13:58.859Z,74.80
2018-11-23T22:16:03.556Z,74.80
2018-11-23T22:18:07.949Z,74.80
2018-11-23T22:20:13.372Z,74.70
2018-11-23T22:22:17.825Z,74.70
2018-11-23T22:24:25.183Z,74.80
2018-11-23T22:26:29.561Z,74.80
2018-11-23T22:28:33.994Z,74.80
2018-11-23T22:30:39.209Z,75.00
2018-11-23T22:32:43.617Z,75.10
2018-11-23T22:34:47.993Z,75.30
2018-11-23T22:36:52.839Z,75.30
2018-11-23T22:38:57.319Z,75.40
2018-11-23T22:41:01.730Z,75.20
2018-11-23T22:43:06.633Z,74.90
2018-11-23T22:45:12.137Z,74.80
2018-11-23T22:47:16.531Z,74.70
2018-11-23T22:49:20.926Z,74.50
2018-11-23T22:51:25.306Z,74.40
2018-11-23T22:53:29.671Z,74.50
2018-11-23T22:55:34.118Z,74.60
2018-11-23T22:57:38.590Z,74.70
2018-11-23T22:59:43.048Z,75.10
2018-11-23T23:01:47.437Z,75.20
2018-11-23T23:03:51.836Z,75.50
2018-11-23T23:05:57.127Z,75.40
2018-11-23T23:08:01.519Z,75.20
2018-11-23T23:10:06.289Z,75.40
2018-11-23T23:12:10.681Z,75.40
2018-11-23T23:14:15.080Z,75.60
2018-11-23T23:16:19.484Z,75.80
2018-11-23T23:18:23.878Z,75.90
2018-11-23T23:20:28.368Z,75.90
2018-11-23T23:22:32.731Z,75.70
2018-11-23T23:24:37.102Z,75.40
2018-11-23T23:26:41.719Z,75.60
2018-11-23T23:28:46.123Z,75.50
2018-11-23T23:30:50.477Z,75.50
2018-11-23T23:32:54.929Z,75.50
2018-11-23T23:34:59.327Z,75.50
2018-11-23T23:37:04.179Z,75.50
2018-11-23T23:39:09.023Z,75.50
2018-11-23T23:41:13.518Z,75.60
2018-11-23T23:43:17.921Z,75.50
2018-11-23T23:45:22.388Z,75.60
2018-11-23T23:47:26.740Z,75.60
2018-11-23T23:49:31.505Z,75.60
2018-11-23T23:51:35.945Z,75.70
2018-11-23T23:53:40.347Z,75.60
2018-11-23T23:55:44.924Z,75.80
2018-11-23T23:57:49.483Z,75.90
2018-11-23T23:59:53.918Z,76.00
